createdAt,value
2022-12-17T00:01:07.499Z,50.70
2022-12-17T00:03:53.622Z,57.00
2022-12-17T00:06:42.233Z,66.00
2022-12-17T00:09:27.539Z,58.70
2022-12-17T00:12:12.997Z,52.10
2022-12-17T00:14:58.447Z,52.40
2022-12-17T00:17:43.996Z,63.20
2022-12-17T00:20:29.515Z,61.80
2022-12-17T00:23:40.550Z,61.60
2022-12-17T00:26:26.701Z,63.30
2022-12-17T00:29:12.319Z,56.10
2022-12-17T00:31:57.900Z,64.90
2022-12-17T00:34:43.496Z,72.80
2022-12-17T00:37:29.169Z,69.60
2022-12-17T00:40:14.925Z,57.90
2022-12-17T00:43:00.624Z,62.50
2022-12-17T00:45:46.091Z,67.30
2022-12-17T00:48:31.660Z,63.10
2022-12-17T00:51:17.099Z,59.30
2022-12-17T00:54:03.846Z,63.50
2022-12-17T00:56:49.545Z,73.70
2022-12-17T00:59:34.915Z,63.30
2022-12-17T01:02:20.379Z,74.90
2022-12-17T01:05:05.842Z,63.20
2022-12-17T01:07:52.429Z,72.30
2022-12-17T01:10:37.950Z,75.60
2022-12-17T01:13:23.448Z,73.70
2022-12-17T01:16:09.920Z,67.20
2022-12-17T01:18:55.436Z,72.00
2022-12-17T01:21:41.676Z,69.00
2022-12-17T01:24:27.093Z,61.20
2022-12-17T01:27:12.511Z,52.40
2022-12-17T01:29:58.041Z,55.70
2022-12-17T01:32:43.549Z,54.50
2022-12-17T01:35:29.069Z,56.20
2022-12-17T01:38:17.006Z,57.00
2022-12-17T01:41:02.937Z,56.40
2022-12-17T01:43:53.231Z,54.70
2022-12-17T01:46:39.849Z,64.70
2022-12-17T01:49:27.397Z,60.10
2022-12-17T01:52:14.148Z,60.80
2022-12-17T01:54:59.787Z,72.30
2022-12-17T01:57:45.576Z,62.40
2022-12-17T02:00:34.061Z,60.10
2022-12-17T02:03:20.022Z,64.90
2022-12-17T02:06:15.303Z,55.70
2022-12-17T02:09:14.136Z,52.90
2022-12-17T02:12:18.220Z,55.20
2022-12-17T02:15:08.461Z,64.60
2022-12-17T02:18:05.954Z,49.00
2022-12-17T02:20:58.670Z,53.30
2022-12-17T02:23:44.306Z,53.60
2022-12-17T02:26:39.353Z,51.30
2022-12-17T02:29:26.223Z,48.00
2022-12-17T02:32:12.741Z,50.40
2022-12-17T02:35:04.045Z,50.50
2022-12-17T02:37:50.078Z,57.50
2022-12-17T02:40:38.342Z,57.40
2022-12-17T02:43:25.993Z,53.90
2022-12-17T02:46:12.794Z,58.00
2022-12-17T02:48:58.249Z,50.50
2022-12-17T02:51:45.445Z,51.20
2022-12-17T02:54:31.013Z,54.90
2022-12-17T02:57:16.442Z,53.60
2022-12-17T03:00:03.443Z,50.20
2022-12-17T03:02:49.975Z,68.20
2022-12-17T03:05:44.860Z,60.40
2022-12-17T03:08:31.951Z,55.50
2022-12-17T03:11:17.309Z,62.80
2022-12-17T03:14:19.541Z,50.70
2022-12-17T03:17:05.195Z,51.50
2022-12-17T03:19:50.681Z,50.30
2022-12-17T03:22:36.318Z,52.10
2022-12-17T03:25:21.885Z,51.50
2022-12-17T03:28:07.426Z,60.50
2022-12-17T03:30:53.420Z,54.90
2022-12-17T03:33:39.313Z,55.40
2022-12-17T03:36:25.534Z,49.00
2022-12-17T03:39:11.741Z,48.00
2022-12-17T03:41:57.919Z,61.90
2022-12-17T03:44:43.809Z,49.70
2022-12-17T03:47:29.585Z,51.20
2022-12-17T03:50:15.113Z,49.40
2022-12-17T03:53:00.918Z,49.60
2022-12-17T03:55:46.481Z,58.60
2022-12-17T03:58:39.048Z,53.20
2022-12-17T04:01:25.186Z,51.50
2022-12-17T04:04:10.533Z,50.60
2022-12-17T04:06:56.022Z,53.00
2022-12-17T04:09:41.243Z,49.70
2022-12-17T04:12:26.780Z,48.30
2022-12-17T04:15:12.354Z,50.10
2022-12-17T04:17:57.878Z,46.10
2022-12-17T04:20:43.556Z,54.30
2022-12-17T04:23:28.996Z,46.90
2022-12-17T04:26:14.466Z,54.50
2022-12-17T04:29:10.627Z,54.40
2022-12-17T04:31:55.938Z,51.50
2022-12-17T04:34:41.377Z,48.60
2022-12-17T04:37:26.915Z,57.40
2022-12-17T04:40:12.293Z,48.40
2022-12-17T04:42:57.614Z,51.10
2022-12-17T04:45:43.151Z,56.60
2022-12-17T04:48:28.860Z,58.20
2022-12-17T04:51:14.419Z,56.30
2022-12-17T04:53:59.747Z,53.80
2022-12-17T04:56:44.986Z,56.80
2022-12-17T04:59:30.314Z,58.10
2022-12-17T05:02:15.638Z,70.20
2022-12-17T05:05:01.272Z,45.90
2022-12-17T05:07:47.083Z,66.10
2022-12-17T05:10:32.599Z,53.80
2022-12-17T05:13:19.788Z,53.00
2022-12-17T05:16:05.675Z,58.10
2022-12-17T05:18:51.026Z,60.20
2022-12-17T05:21:36.614Z,48.40
2022-12-17T05:24:22.173Z,47.60
2022-12-17T05:27:07.771Z,48.70
2022-12-17T05:29:53.522Z,49.70
2022-12-17T05:32:38.919Z,43.10
2022-12-17T05:35:24.757Z,45.50
2022-12-17T05:38:10.106Z,43.50
2022-12-17T05:40:55.516Z,48.70
2022-12-17T05:43:41.024Z,43.00
2022-12-17T05:46:26.626Z,46.70
2022-12-17T05:49:12.231Z,49.70
2022-12-17T05:51:57.735Z,43.30
2022-12-17T05:54:43.209Z,56.20
2022-12-17T05:57:28.698Z,55.80
2022-12-17T06:00:14.307Z,62.50
2022-12-17T06:02:59.961Z,63.20
2022-12-17T06:05:45.367Z,69.10
2022-12-17T06:08:31.118Z,59.20
2022-12-17T06:11:18.313Z,58.70
2022-12-17T06:14:04.876Z,52.90
2022-12-17T06:16:50.649Z,57.30
2022-12-17T06:19:36.288Z,61.40
2022-12-17T06:22:21.665Z,67.80
2022-12-17T06:25:06.794Z,54.80
2022-12-17T06:27:52.393Z,53.60
2022-12-17T06:30:38.292Z,65.80
2022-12-17T06:33:29.040Z,72.60
2022-12-17T06:36:22.074Z,73.60
2022-12-17T06:39:08.625Z,72.20
2022-12-17T06:42:00.519Z,63.30
2022-12-17T06:44:50.095Z,60.40
2022-12-17T06:47:35.352Z,52.50
2022-12-17T06:50:20.661Z,45.40
2022-12-17T06:53:06.170Z,54.30
2022-12-17T06:55:51.640Z,55.00
2022-12-17T06:58:37.199Z,44.10
2022-12-17T07:01:22.621Z,43.20
2022-12-17T07:04:07.895Z,38.60
2022-12-17T07:07:10.772Z,41.30
2022-12-17T07:09:57.199Z,42.20
2022-12-17T07:12:42.758Z,37.60
2022-12-17T07:15:28.872Z,41.50
2022-12-17T07:18:16.267Z,35.50
2022-12-17T07:21:02.024Z,39.70
2022-12-17T07:23:47.997Z,41.60
2022-12-17T07:26:33.995Z,40.70
2022-12-17T07:29:19.444Z,38.90
2022-12-17T07:32:05.020Z,47.70
2022-12-17T07:34:50.321Z,41.00
2022-12-17T07:37:35.702Z,31.30
2022-12-17T07:40:22.540Z,44.30
2022-12-17T07:43:08.068Z,34.40
2022-12-17T07:45:53.644Z,43.60
2022-12-17T07:48:39.118Z,42.50
2022-12-17T07:51:24.596Z,42.30
2022-12-17T07:54:10.032Z,45.60
2022-12-17T07:56:56.031Z,32.20
2022-12-17T07:59:41.529Z,38.20
2022-12-17T08:02:28.992Z,33.00
2022-12-17T08:05:14.636Z,37.00
2022-12-17T08:08:00.056Z,36.60
2022-12-17T08:10:45.475Z,36.90
2022-12-17T08:13:31.012Z,38.90
2022-12-17T08:16:16.655Z,38.20
2022-12-17T08:19:02.331Z,36.20
2022-12-17T08:21:47.829Z,43.10
2022-12-17T08:24:33.357Z,40.70
2022-12-17T08:27:18.941Z,45.10
2022-12-17T08:30:04.427Z,43.50
2022-12-17T08:32:50.054Z,41.60
2022-12-17T08:35:35.633Z,46.50
2022-12-17T08:38:22.257Z,51.30
2022-12-17T08:41:07.970Z,45.60
2022-12-17T08:43:54.130Z,50.30
2022-12-17T08:46:39.728Z,39.20
2022-12-17T08:49:25.608Z,38.50
2022-12-17T08:52:10.874Z,56.40
2022-12-17T08:54:56.404Z,46.30
2022-12-17T08:57:41.527Z,39.70
2022-12-17T09:00:27.999Z,48.50
2022-12-17T09:03:20.769Z,45.70
2022-12-17T09:06:06.665Z,57.50
2022-12-17T09:08:52.044Z,48.50
2022-12-17T09:11:37.362Z,48.00
2022-12-17T09:14:22.871Z,39.60
2022-12-17T09:17:08.475Z,42.80
2022-12-17T09:19:54.080Z,38.00
2022-12-17T09:22:39.436Z,39.70
2022-12-17T09:25:25.305Z,44.00
2022-12-17T09:28:10.698Z,39.70
2022-12-17T09:30:56.032Z,54.10
2022-12-17T09:33:42.242Z,46.90
2022-12-17T09:36:27.821Z,44.20
2022-12-17T09:39:13.406Z,48.70
2022-12-17T09:41:58.867Z,50.50
2022-12-17T09:44:51.523Z,49.00
2022-12-17T09:47:55.405Z,41.80
2022-12-17T09:50:41.502Z,38.70
2022-12-17T09:53:56.009Z,45.20
2022-12-17T09:56:44.963Z,48.90
2022-12-17T09:59:38.929Z,47.60
2022-12-17T10:02:44.958Z,46.80
2022-12-17T10:05:39.590Z,55.40
2022-12-17T10:08:25.873Z,43.40
2022-12-17T10:11:11.751Z,38.40
2022-12-17T10:13:57.158Z,42.40
2022-12-17T10:16:57.899Z,33.10
2022-12-17T10:19:57.471Z,33.40
2022-12-17T10:22:42.909Z,32.20
2022-12-17T10:25:40.822Z,37.10
2022-12-17T10:28:39.488Z,32.30
2022-12-17T10:31:33.371Z,35.90
2022-12-17T10:34:19.027Z,39.00
2022-12-17T10:37:11.313Z,34.60
2022-12-17T10:39:59.311Z,30.90
2022-12-17T10:42:47.172Z,35.90
2022-12-17T10:45:47.852Z,34.00
2022-12-17T10:48:44.786Z,35.10
2022-12-17T10:51:43.737Z,40.90
2022-12-17T10:54:49.055Z,31.40
2022-12-17T10:57:56.246Z,41.40
2022-12-17T11:00:49.317Z,32.00
2022-12-17T11:03:53.917Z,33.20
2022-12-17T11:06:45.464Z,32.70
2022-12-17T11:10:09.078Z,32.70
2022-12-17T11:13:03.990Z,33.50
2022-12-17T11:16:03.986Z,35.60
2022-12-17T11:19:28.084Z,34.10
2022-12-17T11:22:19.769Z,31.00
2022-12-17T11:25:16.771Z,32.20
2022-12-17T11:28:09.125Z,30.00
2022-12-17T11:31:08.387Z,29.80
2022-12-17T11:34:03.594Z,30.00
2022-12-17T11:36:57.738Z,28.30
2022-12-17T11:40:16.408Z,30.20
2022-12-17T11:43:27.421Z,29.90
2022-12-17T11:46:35.090Z,28.00
2022-12-17T11:49:39.797Z,28.80
2022-12-17T11:52:40.698Z,29.50
2022-12-17T11:55:38.303Z,27.40
2022-12-17T11:58:32.735Z,33.70
2022-12-17T12:01:18.423Z,29.20
2022-12-17T12:04:31.939Z,23.30
2022-12-17T12:07:36.039Z,31.50
2022-12-17T12:10:29.893Z,28.00
2022-12-17T12:13:21.500Z,28.20
2022-12-17T12:16:46.443Z,30.20
2022-12-17T12:19:42.553Z,34.10
2022-12-17T12:22:44.499Z,33.70
2022-12-17T12:25:30.103Z,35.20
2022-12-17T12:28:21.529Z,32.70
2022-12-17T12:31:26.306Z,28.40
2022-12-17T12:34:47.582Z,34.10
2022-12-17T12:37:36.599Z,39.30
2022-12-17T12:40:40.479Z,35.60
2022-12-17T12:43:51.076Z,32.90
2022-12-17T12:46:50.739Z,30.40
2022-12-17T12:49:49.595Z,30.00
2022-12-17T12:52:40.945Z,33.20
2022-12-17T12:55:26.874Z,36.20
2022-12-17T12:58:18.349Z,24.00
2022-12-17T13:01:07.604Z,27.30
2022-12-17T13:04:02.364Z,21.90
2022-12-17T13:09:47.524Z,19.90
2022-12-17T13:12:26.895Z,19.80
2022-12-17T13:14:56.241Z,26.60
2022-12-17T13:17:44.179Z,22.70
2022-12-17T13:20:26.270Z,20.40
2022-12-17T13:23:13.919Z,17.00
2022-12-17T13:25:41.775Z,17.00
2022-12-17T13:28:30.413Z,17.30
2022-12-17T13:31:05.788Z,20.70
2022-12-17T13:33:49.418Z,25.50
2022-12-17T13:36:22.217Z,20.60
2022-12-17T13:39:07.750Z,23.70
2022-12-17T13:41:38.187Z,17.60
2022-12-17T13:44:19.800Z,15.90
2022-12-17T13:46:49.548Z,15.80
2022-12-17T13:49:21.500Z,17.00
2022-12-17T13:52:00.272Z,21.20
2022-12-17T13:54:27.141Z,14.30
2022-12-17T13:56:54.182Z,16.00
2022-12-17T13:59:24.855Z,16.40
2022-12-17T14:01:53.604Z,14.80
2022-12-17T14:04:24.518Z,16.90
2022-12-17T14:06:53.149Z,13.80
2022-12-17T14:09:22.593Z,13.90
2022-12-17T14:12:08.512Z,17.20
2022-12-17T14:14:46.434Z,19.00
2022-12-17T14:17:22.738Z,20.70
2022-12-17T14:19:57.949Z,14.80
2022-12-17T14:22:51.425Z,16.40
2022-12-17T14:25:21.444Z,12.80
2022-12-17T14:27:56.077Z,10.40
2022-12-17T14:30:25.314Z,13.60
2022-12-17T14:32:52.236Z,12.10
2022-12-17T14:35:24.726Z,10.30
2022-12-17T14:37:51.605Z,13.60
2022-12-17T14:40:19.930Z,11.80
2022-12-17T14:42:48.360Z,9.40
2022-12-17T14:45:15.240Z,11.30
2022-12-17T14:47:54.065Z,11.40
2022-12-17T14:50:20.968Z,12.50
2022-12-17T14:52:50.273Z,12.60
2022-12-17T14:55:55.418Z,8.70
2022-12-17T14:58:25.203Z,8.50
2022-12-17T15:01:04.555Z,9.70
2022-12-17T15:03:35.609Z,8.50
2022-12-17T15:06:05.306Z,7.90
2022-12-17T15:08:40.625Z,7.80
2022-12-17T15:11:07.881Z,7.70
2022-12-17T15:13:34.755Z,5.70
2022-12-17T15:16:01.597Z,9.20
2022-12-17T15:18:28.454Z,6.70
2022-12-17T15:20:55.208Z,8.50
2022-12-17T15:23:23.808Z,7.40
2022-12-17T15:25:52.446Z,8.70
2022-12-17T15:28:20.542Z,7.40
2022-12-17T15:30:48.614Z,10.10
2022-12-17T15:33:16.358Z,8.50
2022-12-17T15:35:43.384Z,5.80
2022-12-17T15:38:12.042Z,9.00
2022-12-17T15:40:39.239Z,6.10
2022-12-17T15:43:12.027Z,6.40
2022-12-17T15:45:47.960Z,7.40
2022-12-17T15:48:17.739Z,7.10
2022-12-17T15:50:45.085Z,6.30
2022-12-17T15:53:12.015Z,4.50
2022-12-17T15:55:39.076Z,4.60
2022-12-17T15:58:07.104Z,6.00
2022-12-17T16:00:34.644Z,5.30
2022-12-17T16:03:01.561Z,5.10
2022-12-17T16:05:29.203Z,6.70
2022-12-17T16:07:58.716Z,4.30
2022-12-17T16:10:25.536Z,3.90
2022-12-17T16:12:52.323Z,3.60
2022-12-17T16:15:19.231Z,4.90
2022-12-17T16:17:46.200Z,4.80
2022-12-17T16:20:13.237Z,4.20
2022-12-17T16:22:40.056Z,4.70
2022-12-17T16:25:07.636Z,5.30
2022-12-17T16:27:34.563Z,4.50
2022-12-17T16:30:03.089Z,5.40
2022-12-17T16:32:34.735Z,4.60
2022-12-17T16:35:04.797Z,4.20
2022-12-17T16:37:31.837Z,6.20
2022-12-17T16:40:00.432Z,4.10
2022-12-17T16:42:27.853Z,5.10
2022-12-17T16:44:54.670Z,4.50
2022-12-17T16:47:21.441Z,5.50
2022-12-17T16:49:50.163Z,5.00
2022-12-17T16:52:17.204Z,5.30
2022-12-17T16:54:44.224Z,5.80
2022-12-17T16:57:10.976Z,5.70
2022-12-17T16:59:37.771Z,7.50
2022-12-17T17:02:05.209Z,8.40
2022-12-17T17:04:32.125Z,6.60
2022-12-17T17:06:58.963Z,8.10
2022-12-17T17:09:26.132Z,5.80
2022-12-17T17:11:58.176Z,7.40
2022-12-17T17:14:25.824Z,7.60
2022-12-17T17:16:52.943Z,5.90
2022-12-17T17:19:20.091Z,6.70
2022-12-17T17:21:53.517Z,7.40
2022-12-17T17:24:26.100Z,8.40
2022-12-17T17:26:54.597Z,8.00
2022-12-17T17:29:21.807Z,9.00
2022-12-17T17:34:35.567Z,9.20
2022-12-17T17:37:02.349Z,9.70
2022-12-17T17:39:32.536Z,8.10
2022-12-17T17:42:00.185Z,6.00
2022-12-17T17:44:26.962Z,8.80
2022-12-17T17:46:53.790Z,7.10
2022-12-17T17:49:20.578Z,5.90
2022-12-17T17:54:34.266Z,3.90
2022-12-17T17:57:01.042Z,6.30
2022-12-17T17:59:33.292Z,7.50
2022-12-17T18:02:01.941Z,6.70
2022-12-17T18:04:29.313Z,6.50
2022-12-17T18:09:43.184Z,6.00
2022-12-17T18:12:28.719Z,6.50
2022-12-17T18:15:13.760Z,5.00
2022-12-17T18:17:42.087Z,6.10
2022-12-17T18:20:09.904Z,4.90
2022-12-17T18:22:37.143Z,4.60
2022-12-17T18:25:05.080Z,7.50
2022-12-17T18:27:32.243Z,7.60
2022-12-17T18:29:59.001Z,6.60
2022-12-17T18:32:25.733Z,3.70
2022-12-17T18:34:52.565Z,8.10
2022-12-17T18:37:19.417Z,6.20
2022-12-17T18:39:46.847Z,8.70
2022-12-17T18:42:32.513Z,7.10
2022-12-17T18:44:59.332Z,7.50
2022-12-17T18:47:26.571Z,5.80
2022-12-17T18:49:53.758Z,9.70
2022-12-17T18:52:22.205Z,9.00
2022-12-17T18:54:49.375Z,9.70
2022-12-17T18:57:16.334Z,7.50
2022-12-17T18:59:43.100Z,7.30
2022-12-17T19:02:11.940Z,7.80
2022-12-17T19:04:39.006Z,7.00
2022-12-17T19:07:05.774Z,11.20
2022-12-17T19:09:36.074Z,6.90
2022-12-17T19:12:05.940Z,7.40
2022-12-17T19:14:33.646Z,7.60
2022-12-17T19:17:01.180Z,8.80
2022-12-17T19:19:27.987Z,8.30
2022-12-17T19:21:55.986Z,9.10
2022-12-17T19:24:23.171Z,8.70
2022-12-17T19:26:51.032Z,8.80
2022-12-17T19:29:19.560Z,10.20
2022-12-17T19:31:46.953Z,8.60
2022-12-17T19:34:15.680Z,10.70
2022-12-17T19:36:43.152Z,12.50
2022-12-17T19:39:16.155Z,10.40
2022-12-17T19:41:43.496Z,15.90
2022-12-17T19:44:16.096Z,11.90
2022-12-17T19:46:43.737Z,12.10
2022-12-17T19:49:15.802Z,13.90
2022-12-17T19:51:43.769Z,10.50
2022-12-17T19:54:12.495Z,11.30
2022-12-17T19:56:39.574Z,13.60
2022-12-17T19:59:09.211Z,15.10
2022-12-17T20:01:39.548Z,14.40
2022-12-17T20:04:06.410Z,14.50
2022-12-17T20:06:35.004Z,12.80
2022-12-17T20:09:04.678Z,12.40
2022-12-17T20:11:35.159Z,12.60
2022-12-17T20:14:12.977Z,12.00
2022-12-17T20:16:41.380Z,9.60
2022-12-17T20:19:12.122Z,11.00
2022-12-17T20:21:39.829Z,10.80
2022-12-17T20:24:06.928Z,10.70
2022-12-17T20:26:33.978Z,12.30
2022-12-17T20:29:00.754Z,13.60
2022-12-17T20:31:27.941Z,16.90
2022-12-17T20:33:54.939Z,14.50
2022-12-17T20:36:22.696Z,17.20
2022-12-17T20:38:49.523Z,15.40
2022-12-17T20:41:19.192Z,14.20
2022-12-17T20:43:47.019Z,14.60
2022-12-17T20:46:14.208Z,18.10
2022-12-17T20:48:42.746Z,16.90
2022-12-17T20:51:12.390Z,14.70
2022-12-17T20:53:39.553Z,19.90
2022-12-17T20:56:09.906Z,19.80
2022-12-17T20:58:38.756Z,16.60
2022-12-17T21:01:18.066Z,21.90
2022-12-17T21:03:45.653Z,17.80
2022-12-17T21:06:19.764Z,19.30
2022-12-17T21:11:19.869Z,23.40
2022-12-17T21:13:47.079Z,19.40
2022-12-17T21:16:23.328Z,16.80
2022-12-17T21:18:50.153Z,19.60
2022-12-17T21:21:22.186Z,20.40
2022-12-17T21:23:50.373Z,23.40
2022-12-17T21:26:22.265Z,19.30
2022-12-17T21:28:52.956Z,20.80
2022-12-17T21:31:23.272Z,25.50
2022-12-17T21:33:52.055Z,21.50
2022-12-17T21:36:21.084Z,48.00
2022-12-17T21:38:49.286Z,27.00
2022-12-17T21:41:25.502Z,30.30
2022-12-17T21:43:57.937Z,30.60
2022-12-17T21:46:26.921Z,37.40
2022-12-17T21:48:55.596Z,32.70
2022-12-17T21:51:22.968Z,40.30
2022-12-17T21:53:55.869Z,25.20
2022-12-17T21:56:23.382Z,27.20
2022-12-17T21:58:56.363Z,31.10
2022-12-17T22:01:26.225Z,25.00
2022-12-17T22:03:57.064Z,47.90
2022-12-17T22:06:31.330Z,24.80
2022-12-17T22:09:07.484Z,22.20
2022-12-17T22:11:40.867Z,20.10
2022-12-17T22:14:13.983Z,22.60
2022-12-17T22:16:47.841Z,23.30
2022-12-17T22:19:22.289Z,24.60
2022-12-17T22:21:51.689Z,22.40
2022-12-17T22:24:25.669Z,22.80
2022-12-17T22:26:59.486Z,24.20
2022-12-17T22:29:46.403Z,23.60
2022-12-17T22:32:34.680Z,26.20
2022-12-17T22:36:13.499Z,22.30
2022-12-17T22:40:17.351Z,20.70
2022-12-17T22:44:02.761Z,20.90
2022-12-17T22:44:42.466Z,21.80
2022-12-17T22:46:18.732Z,26.30
2022-12-17T22:48:45.955Z,23.60
2022-12-17T22:51:16.684Z,22.30
2022-12-17T22:53:53.257Z,18.20
2022-12-17T22:56:27.029Z,24.60
2022-12-17T22:59:14.913Z,20.10
2022-12-17T23:01:42.304Z,29.40
2022-12-17T23:04:12.261Z,26.60
2022-12-17T23:06:39.956Z,27.00
2022-12-17T23:09:06.783Z,36.10
2022-12-17T23:11:33.676Z,24.60
2022-12-17T23:14:00.486Z,24.50
2022-12-17T23:16:30.437Z,24.70
2022-12-17T23:19:00.812Z,29.90
2022-12-17T23:21:27.882Z,28.50
2022-12-17T23:23:55.929Z,33.60
2022-12-17T23:26:26.801Z,33.00
2022-12-17T23:28:57.804Z,28.90
2022-12-17T23:31:26.695Z,29.00
2022-12-17T23:33:54.325Z,35.10
2022-12-17T23:36:23.437Z,31.50
2022-12-17T23:38:52.504Z,30.20
2022-12-17T23:41:25.363Z,27.00
2022-12-17T23:43:53.458Z,31.60
2022-12-17T23:46:21.787Z,28.80
2022-12-17T23:48:49.207Z,30.90
2022-12-17T23:51:18.801Z,24.20
2022-12-17T23:53:46.877Z,34.10
2022-12-17T23:56:19.880Z,30.10
2022-12-17T23:58:47.572Z,22.60
